sensor_id;sensor_type;location;lat;lon;timestamp;P1;durP1;ratioP1;P2;durP2;ratioP2
4873;SDS011;2451;49.970;9.068;2023-06-24T00:00:01;8.43;;;6.40;;
4873;SDS011;2451;49.970;9.068;2023-06-24T00:02:31;8.00;;;5.90;;
4873;SDS011;2451;49.970;9.068;2023-06-24T00:04:57;9.00;;;6.47;;
4873;SDS011;2451;49.970;9.068;2023-06-24T00:07:25;9.70;;;6.38;;
4873;SDS011;2451;49.970;9.068;2023-06-24T00:09:51;7.55;;;6.05;;
4873;SDS011;2451;49.970;9.068;2023-06-24T00:12:17;9.00;;;6.68;;
4873;SDS011;2451;49.970;9.068;2023-06-24T00:14:44;10.50;;;7.22;;
4873;SDS011;2451;49.970;9.068;2023-06-24T00:17:10;9.35;;;7.15;;
4873;SDS011;2451;49.970;9.068;2023-06-24T00:19:36;9.38;;;6.47;;
4873;SDS011;2451;49.970;9.068;2023-06-24T00:22:02;10.25;;;6.30;;
4873;SDS011;2451;49.970;9.068;2023-06-24T00:24:28;12.25;;;6.55;;
4873;SDS011;2451;49.970;9.068;2023-06-24T00:26:54;9.35;;;6.47;;
4873;SDS011;2451;49.970;9.068;2023-06-24T00:29:22;9.23;;;6.95;;
4873;SDS011;2451;49.970;9.068;2023-06-24T00:31:47;8.88;;;6.82;;
4873;SDS011;2451;49.970;9.068;2023-06-24T00:34:13;9.20;;;6.63;;
4873;SDS011;2451;49.970;9.068;2023-06-24T00:36:39;8.60;;;6.57;;
4873;SDS011;2451;49.970;9.068;2023-06-24T00:39:05;10.55;;;6.82;;
4873;SDS011;2451;49.970;9.068;2023-06-24T00:41:31;9.88;;;6.70;;
4873;SDS011;2451;49.970;9.068;2023-06-24T00:43:58;8.98;;;6.57;;
4873;SDS011;2451;49.970;9.068;2023-06-24T00:46:24;8.05;;;6.07;;
4873;SDS011;2451;49.970;9.068;2023-06-24T00:48:54;8.18;;;6.45;;
4873;SDS011;2451;49.970;9.068;2023-06-24T00:51:21;8.15;;;5.93;;
4873;SDS011;2451;49.970;9.068;2023-06-24T00:53:51;9.18;;;6.28;;
4873;SDS011;2451;49.970;9.068;2023-06-24T00:56:21;8.35;;;6.38;;
4873;SDS011;2451;49.970;9.068;2023-06-24T00:58:50;9.10;;;6.53;;
4873;SDS011;2451;49.970;9.068;2023-06-24T01:01:17;7.90;;;6.38;;
4873;SDS011;2451;49.970;9.068;2023-06-24T01:03:43;9.00;;;6.53;;
4873;SDS011;2451;49.970;9.068;2023-06-24T01:06:09;8.27;;;6.55;;
4873;SDS011;2451;49.970;9.068;2023-06-24T01:08:35;8.10;;;6.22;;
4873;SDS011;2451;49.970;9.068;2023-06-24T01:11:00;10.30;;;6.65;;
4873;SDS011;2451;49.970;9.068;2023-06-24T01:13:26;8.85;;;6.40;;
4873;SDS011;2451;49.970;9.068;2023-06-24T01:15:51;8.77;;;6.28;;
4873;SDS011;2451;49.970;9.068;2023-06-24T01:18:22;8.82;;;6.45;;
4873;SDS011;2451;49.970;9.068;2023-06-24T01:20:56;8.18;;;6.47;;
4873;SDS011;2451;49.970;9.068;2023-06-24T01:39:46;9.90;;;7.03;;
4873;SDS011;2451;49.970;9.068;2023-06-24T01:42:16;8.38;;;6.50;;
4873;SDS011;2451;49.970;9.068;2023-06-24T01:44:43;7.88;;;6.35;;
4873;SDS011;2451;49.970;9.068;2023-06-24T01:47:12;8.52;;;6.72;;
4873;SDS011;2451;49.970;9.068;2023-06-24T01:49:43;8.48;;;6.75;;
4873;SDS011;2451;49.970;9.068;2023-06-24T01:52:10;8.73;;;6.22;;
4873;SDS011;2451;49.970;9.068;2023-06-24T01:54:37;8.98;;;6.63;;
4873;SDS011;2451;49.970;9.068;2023-06-24T01:57:05;8.05;;;6.28;;
4873;SDS011;2451;49.970;9.068;2023-06-24T01:59:33;8.25;;;6.65;;
4873;SDS011;2451;49.970;9.068;2023-06-24T02:02:00;7.78;;;6.10;;
4873;SDS011;2451;49.970;9.068;2023-06-24T02:04:27;8.98;;;6.93;;
4873;SDS011;2451;49.970;9.068;2023-06-24T02:06:56;8.20;;;6.47;;
4873;SDS011;2451;49.970;9.068;2023-06-24T02:11:51;9.80;;;7.53;;
4873;SDS011;2451;49.970;9.068;2023-06-24T02:14:18;9.02;;;7.32;;
4873;SDS011;2451;49.970;9.068;2023-06-24T02:16:45;9.43;;;7.38;;
4873;SDS011;2451;49.970;9.068;2023-06-24T02:19:12;10.27;;;7.70;;
4873;SDS011;2451;49.970;9.068;2023-06-24T02:21:42;9.60;;;7.05;;
4873;SDS011;2451;49.970;9.068;2023-06-24T02:24:08;9.27;;;7.03;;
4873;SDS011;2451;49.970;9.068;2023-06-24T02:26:35;9.82;;;6.50;;
4873;SDS011;2451;49.970;9.068;2023-06-24T02:29:05;8.70;;;7.03;;
4873;SDS011;2451;49.970;9.068;2023-06-24T02:31:33;8.65;;;6.75;;
4873;SDS011;2451;49.970;9.068;2023-06-24T02:33:59;9.57;;;7.10;;
4873;SDS011;2451;49.970;9.068;2023-06-24T02:36:25;8.75;;;6.75;;
4873;SDS011;2451;49.970;9.068;2023-06-24T02:38:50;8.90;;;6.63;;
4873;SDS011;2451;49.970;9.068;2023-06-24T02:41:16;9.23;;;6.75;;
4873;SDS011;2451;49.970;9.068;2023-06-24T02:43:41;8.98;;;7.00;;
4873;SDS011;2451;49.970;9.068;2023-06-24T02:46:07;8.88;;;7.28;;
4873;SDS011;2451;49.970;9.068;2023-06-24T02:48:34;8.93;;;6.65;;
4873;SDS011;2451;49.970;9.068;2023-06-24T02:51:02;9.98;;;7.20;;
4873;SDS011;2451;49.970;9.068;2023-06-24T02:53:29;9.52;;;6.97;;
4873;SDS011;2451;49.970;9.068;2023-06-24T02:55:55;9.73;;;6.82;;
4873;SDS011;2451;49.970;9.068;2023-06-24T02:58:21;9.02;;;7.30;;
4873;SDS011;2451;49.970;9.068;2023-06-24T03:00:49;8.68;;;7.38;;
4873;SDS011;2451;49.970;9.068;2023-06-24T03:03:14;9.18;;;7.22;;
4873;SDS011;2451;49.970;9.068;2023-06-24T03:05:41;8.80;;;6.80;;
4873;SDS011;2451;49.970;9.068;2023-06-24T03:08:09;9.97;;;7.43;;
4873;SDS011;2451;49.970;9.068;2023-06-24T03:10:36;8.77;;;7.57;;
4873;SDS011;2451;49.970;9.068;2023-06-24T03:13:02;9.10;;;7.28;;
4873;SDS011;2451;49.970;9.068;2023-06-24T03:15:28;9.82;;;7.20;;
4873;SDS011;2451;49.970;9.068;2023-06-24T03:17:53;10.82;;;8.15;;
4873;SDS011;2451;49.970;9.068;2023-06-24T03:20:19;9.63;;;7.90;;
4873;SDS011;2451;49.970;9.068;2023-06-24T03:22:45;11.25;;;7.40;;
4873;SDS011;2451;49.970;9.068;2023-06-24T03:25:11;9.60;;;7.57;;
4873;SDS011;2451;49.970;9.068;2023-06-24T03:27:36;12.57;;;8.20;;
4873;SDS011;2451;49.970;9.068;2023-06-24T03:30:02;9.82;;;7.97;;
4873;SDS011;2451;49.970;9.068;2023-06-24T03:32:28;11.38;;;7.20;;
4873;SDS011;2451;49.970;9.068;2023-06-24T03:34:54;9.65;;;8.00;;
4873;SDS011;2451;49.970;9.068;2023-06-24T03:37:19;11.50;;;7.63;;
4873;SDS011;2451;49.970;9.068;2023-06-24T03:39:45;10.68;;;7.72;;
4873;SDS011;2451;49.970;9.068;2023-06-24T03:42:10;12.30;;;7.97;;
4873;SDS011;2451;49.970;9.068;2023-06-24T03:44:36;9.93;;;7.70;;
4873;SDS011;2451;49.970;9.068;2023-06-24T03:47:01;10.80;;;8.30;;
4873;SDS011;2451;49.970;9.068;2023-06-24T03:49:27;9.93;;;8.00;;
4873;SDS011;2451;49.970;9.068;2023-06-24T03:51:52;11.70;;;8.40;;
4873;SDS011;2451;49.970;9.068;2023-06-24T03:54:18;10.07;;;8.13;;
4873;SDS011;2451;49.970;9.068;2023-06-24T03:56:43;11.63;;;8.40;;
4873;SDS011;2451;49.970;9.068;2023-06-24T03:59:09;13.57;;;8.48;;
4873;SDS011;2451;49.970;9.068;2023-06-24T04:01:34;12.00;;;7.93;;
4873;SDS011;2451;49.970;9.068;2023-06-24T04:04:01;10.73;;;8.60;;
4873;SDS011;2451;49.970;9.068;2023-06-24T04:06:27;11.25;;;8.05;;
4873;SDS011;2451;49.970;9.068;2023-06-24T04:08:52;11.20;;;7.80;;
4873;SDS011;2451;49.970;9.068;2023-06-24T04:11:18;11.38;;;8.48;;
4873;SDS011;2451;49.970;9.068;2023-06-24T04:13:44;11.05;;;7.70;;
4873;SDS011;2451;49.970;9.068;2023-06-24T04:16:10;10.68;;;8.07;;
4873;SDS011;2451;49.970;9.068;2023-06-24T04:18:36;13.48;;;8.48;;
4873;SDS011;2451;49.970;9.068;2023-06-24T04:21:04;10.20;;;8.00;;
4873;SDS011;2451;49.970;9.068;2023-06-24T04:23:31;9.48;;;7.80;;
4873;SDS011;2451;49.970;9.068;2023-06-24T04:25:57;11.88;;;8.18;;
4873;SDS011;2451;49.970;9.068;2023-06-24T04:28:23;10.68;;;8.35;;
4873;SDS011;2451;49.970;9.068;2023-06-24T04:30:48;10.85;;;8.63;;
4873;SDS011;2451;49.970;9.068;2023-06-24T04:33:14;11.32;;;8.52;;
4873;SDS011;2451;49.970;9.068;2023-06-24T04:35:39;10.43;;;8.57;;
4873;SDS011;2451;49.970;9.068;2023-06-24T04:38:05;11.23;;;8.60;;
4873;SDS011;2451;49.970;9.068;2023-06-24T04:40:30;12.75;;;8.40;;
4873;SDS011;2451;49.970;9.068;2023-06-24T04:42:56;13.90;;;9.23;;
4873;SDS011;2451;49.970;9.068;2023-06-24T04:45:21;11.90;;;8.98;;
4873;SDS011;2451;49.970;9.068;2023-06-24T04:47:47;9.95;;;8.18;;
4873;SDS011;2451;49.970;9.068;2023-06-24T04:50:13;11.77;;;8.73;;
4873;SDS011;2451;49.970;9.068;2023-06-24T04:52:39;10.52;;;8.45;;
4873;SDS011;2451;49.970;9.068;2023-06-24T04:55:04;10.68;;;8.52;;
4873;SDS011;2451;49.970;9.068;2023-06-24T04:57:31;10.98;;;8.57;;
4873;SDS011;2451;49.970;9.068;2023-06-24T04:59:57;9.65;;;8.38;;
4873;SDS011;2451;49.970;9.068;2023-06-24T05:02:23;11.70;;;8.80;;
4873;SDS011;2451;49.970;9.068;2023-06-24T05:04:49;11.02;;;8.75;;
4873;SDS011;2451;49.970;9.068;2023-06-24T05:07:16;11.98;;;8.73;;
4873;SDS011;2451;49.970;9.068;2023-06-24T05:09:42;11.10;;;8.23;;
4873;SDS011;2451;49.970;9.068;2023-06-24T05:12:08;11.98;;;9.00;;
4873;SDS011;2451;49.970;9.068;2023-06-24T05:14:35;9.70;;;7.65;;
4873;SDS011;2451;49.970;9.068;2023-06-24T05:17:01;11.15;;;8.38;;
4873;SDS011;2451;49.970;9.068;2023-06-24T05:19:27;13.15;;;8.43;;
4873;SDS011;2451;49.970;9.068;2023-06-24T05:21:52;13.20;;;9.27;;
4873;SDS011;2451;49.970;9.068;2023-06-24T05:24:18;10.25;;;7.90;;
4873;SDS011;2451;49.970;9.068;2023-06-24T05:26:48;9.38;;;7.43;;
4873;SDS011;2451;49.970;9.068;2023-06-24T05:29:14;13.60;;;8.00;;
4873;SDS011;2451;49.970;9.068;2023-06-24T05:31:40;10.20;;;8.05;;
4873;SDS011;2451;49.970;9.068;2023-06-24T05:34:05;10.38;;;7.53;;
4873;SDS011;2451;49.970;9.068;2023-06-24T05:36:31;11.63;;;7.57;;
4873;SDS011;2451;49.970;9.068;2023-06-24T05:38:56;11.13;;;7.72;;
4873;SDS011;2451;49.970;9.068;2023-06-24T05:41:22;10.40;;;7.60;;
4873;SDS011;2451;49.970;9.068;2023-06-24T05:43:47;9.77;;;7.10;;
4873;SDS011;2451;49.970;9.068;2023-06-24T05:46:13;9.40;;;7.47;;
4873;SDS011;2451;49.970;9.068;2023-06-24T05:48:39;8.75;;;6.97;;
4873;SDS011;2451;49.970;9.068;2023-06-24T05:51:04;10.45;;;7.03;;
4873;SDS011;2451;49.970;9.068;2023-06-24T05:53:30;10.10;;;7.45;;
4873;SDS011;2451;49.970;9.068;2023-06-24T05:55:55;9.32;;;7.20;;
4873;SDS011;2451;49.970;9.068;2023-06-24T05:58:21;8.20;;;6.80;;
4873;SDS011;2451;49.970;9.068;2023-06-24T06:00:46;9.10;;;7.10;;
4873;SDS011;2451;49.970;9.068;2023-06-24T06:03:12;9.30;;;6.75;;
4873;SDS011;2451;49.970;9.068;2023-06-24T06:05:37;10.32;;;6.78;;
4873;SDS011;2451;49.970;9.068;2023-06-24T06:08:03;9.18;;;6.95;;
4873;SDS011;2451;49.970;9.068;2023-06-24T06:10:28;8.02;;;6.10;;
4873;SDS011;2451;49.970;9.068;2023-06-24T06:12:55;10.13;;;7.00;;
4873;SDS011;2451;49.970;9.068;2023-06-24T06:15:20;9.93;;;6.20;;
4873;SDS011;2451;49.970;9.068;2023-06-24T06:17:46;9.50;;;6.80;;
4873;SDS011;2451;49.970;9.068;2023-06-24T06:20:11;10.02;;;5.85;;
4873;SDS011;2451;49.970;9.068;2023-06-24T06:22:37;9.18;;;6.50;;
4873;SDS011;2451;49.970;9.068;2023-06-24T06:25:06;8.88;;;5.80;;
4873;SDS011;2451;49.970;9.068;2023-06-24T06:27:32;8.43;;;6.20;;
4873;SDS011;2451;49.970;9.068;2023-06-24T06:29:58;7.82;;;6.10;;
4873;SDS011;2451;49.970;9.068;2023-06-24T06:32:24;7.95;;;5.95;;
4873;SDS011;2451;49.970;9.068;2023-06-24T06:34:49;8.68;;;5.63;;
4873;SDS011;2451;49.970;9.068;2023-06-24T06:37:15;9.02;;;6.38;;
4873;SDS011;2451;49.970;9.068;2023-06-24T06:39:41;8.60;;;6.30;;
4873;SDS011;2451;49.970;9.068;2023-06-24T06:42:06;8.57;;;6.28;;
4873;SDS011;2451;49.970;9.068;2023-06-24T06:44:32;9.68;;;5.85;;
4873;SDS011;2451;49.970;9.068;2023-06-24T06:46:57;9.93;;;6.28;;
4873;SDS011;2451;49.970;9.068;2023-06-24T06:49:23;9.02;;;6.15;;
4873;SDS011;2451;49.970;9.068;2023-06-24T06:51:48;8.25;;;6.10;;
4873;SDS011;2451;49.970;9.068;2023-06-24T06:54:14;9.07;;;6.18;;
4873;SDS011;2451;49.970;9.068;2023-06-24T06:56:39;7.93;;;6.18;;
4873;SDS011;2451;49.970;9.068;2023-06-24T06:59:05;12.00;;;6.25;;
4873;SDS011;2451;49.970;9.068;2023-06-24T07:01:31;8.38;;;6.07;;
4873;SDS011;2451;49.970;9.068;2023-06-24T07:03:56;7.22;;;5.75;;
4873;SDS011;2451;49.970;9.068;2023-06-24T07:06:22;8.73;;;5.82;;
4873;SDS011;2451;49.970;9.068;2023-06-24T07:08:47;8.43;;;5.82;;
4873;SDS011;2451;49.970;9.068;2023-06-24T07:11:13;8.45;;;5.60;;
4873;SDS011;2451;49.970;9.068;2023-06-24T07:13:38;8.63;;;5.93;;
4873;SDS011;2451;49.970;9.068;2023-06-24T07:16:04;7.53;;;6.07;;
4873;SDS011;2451;49.970;9.068;2023-06-24T07:18:30;8.88;;;5.65;;
4873;SDS011;2451;49.970;9.068;2023-06-24T07:20:55;7.72;;;5.68;;
4873;SDS011;2451;49.970;9.068;2023-06-24T07:23:22;9.60;;;5.60;;
4873;SDS011;2451;49.970;9.068;2023-06-24T07:25:47;8.40;;;5.35;;
4873;SDS011;2451;49.970;9.068;2023-06-24T07:28:13;9.13;;;5.88;;
4873;SDS011;2451;49.970;9.068;2023-06-24T07:30:39;6.65;;;5.50;;
4873;SDS011;2451;49.970;9.068;2023-06-24T07:33:06;8.30;;;5.13;;
4873;SDS011;2451;49.970;9.068;2023-06-24T07:35:32;8.27;;;5.07;;
4873;SDS011;2451;49.970;9.068;2023-06-24T07:37:58;7.55;;;5.70;;
4873;SDS011;2451;49.970;9.068;2023-06-24T07:40:24;10.48;;;6.00;;
4873;SDS011;2451;49.970;9.068;2023-06-24T07:42:49;8.77;;;5.47;;
4873;SDS011;2451;49.970;9.068;2023-06-24T07:45:15;8.05;;;5.63;;
4873;SDS011;2451;49.970;9.068;2023-06-24T07:47:40;7.57;;;5.50;;
4873;SDS011;2451;49.970;9.068;2023-06-24T07:50:06;8.40;;;5.93;;
4873;SDS011;2451;49.970;9.068;2023-06-24T07:52:32;7.15;;;5.75;;
4873;SDS011;2451;49.970;9.068;2023-06-24T07:54:58;8.57;;;5.28;;
4873;SDS011;2451;49.970;9.068;2023-06-24T07:57:24;7.53;;;5.05;;
4873;SDS011;2451;49.970;9.068;2023-06-24T07:59:51;8.15;;;5.30;;
4873;SDS011;2451;49.970;9.068;2023-06-24T08:02:17;8.45;;;5.30;;
4873;SDS011;2451;49.970;9.068;2023-06-24T08:04:42;6.97;;;4.80;;
4873;SDS011;2451;49.970;9.068;2023-06-24T08:07:08;7.13;;;5.15;;
4873;SDS011;2451;49.970;9.068;2023-06-24T08:09:33;6.28;;;4.55;;
4873;SDS011;2451;49.970;9.068;2023-06-24T08:11:59;7.45;;;5.35;;
4873;SDS011;2451;49.970;9.068;2023-06-24T08:14:24;7.90;;;5.00;;
4873;SDS011;2451;49.970;9.068;2023-06-24T08:16:50;7.55;;;5.20;;
4873;SDS011;2451;49.970;9.068;2023-06-24T08:19:15;7.22;;;4.95;;
4873;SDS011;2451;49.970;9.068;2023-06-24T08:21:41;9.90;;;5.35;;
4873;SDS011;2451;49.970;9.068;2023-06-24T08:24:06;6.85;;;4.90;;
4873;SDS011;2451;49.970;9.068;2023-06-24T08:26:32;7.03;;;5.03;;
4873;SDS011;2451;49.970;9.068;2023-06-24T08:28:58;7.80;;;4.80;;
4873;SDS011;2451;49.970;9.068;2023-06-24T08:31:24;7.32;;;4.80;;
4873;SDS011;2451;49.970;9.068;2023-06-24T08:33:53;8.00;;;4.97;;
4873;SDS011;2451;49.970;9.068;2023-06-24T08:36:21;7.45;;;5.30;;
4873;SDS011;2451;49.970;9.068;2023-06-24T08:38:47;6.73;;;5.37;;
4873;SDS011;2451;49.970;9.068;2023-06-24T08:41:13;6.93;;;4.72;;
4873;SDS011;2451;49.970;9.068;2023-06-24T08:43:38;6.75;;;4.80;;
4873;SDS011;2451;49.970;9.068;2023-06-24T08:46:05;7.18;;;4.90;;
4873;SDS011;2451;49.970;9.068;2023-06-24T08:48:30;7.85;;;5.18;;
4873;SDS011;2451;49.970;9.068;2023-06-24T08:50:58;7.47;;;5.03;;
4873;SDS011;2451;49.970;9.068;2023-06-24T08:53:25;5.80;;;4.43;;
4873;SDS011;2451;49.970;9.068;2023-06-24T08:55:52;6.38;;;4.57;;
4873;SDS011;2451;49.970;9.068;2023-06-24T08:58:20;6.05;;;4.53;;
4873;SDS011;2451;49.970;9.068;2023-06-24T09:00:46;6.57;;;4.90;;
4873;SDS011;2451;49.970;9.068;2023-06-24T09:03:11;6.40;;;4.97;;
4873;SDS011;2451;49.970;9.068;2023-06-24T09:05:37;7.43;;;4.80;;
4873;SDS011;2451;49.970;9.068;2023-06-24T09:08:02;5.97;;;4.72;;
4873;SDS011;2451;49.970;9.068;2023-06-24T09:10:29;7.55;;;4.80;;
4873;SDS011;2451;49.970;9.068;2023-06-24T09:12:56;9.23;;;5.07;;
4873;SDS011;2451;49.970;9.068;2023-06-24T09:15:22;11.25;;;5.90;;
4873;SDS011;2451;49.970;9.068;2023-06-24T09:17:47;9.27;;;6.10;;
4873;SDS011;2451;49.970;9.068;2023-06-24T09:20:14;9.30;;;5.78;;
4873;SDS011;2451;49.970;9.068;2023-06-24T09:22:44;9.20;;;5.25;;
4873;SDS011;2451;49.970;9.068;2023-06-24T09:25:13;8.95;;;6.13;;
4873;SDS011;2451;49.970;9.068;2023-06-24T09:27:46;9.30;;;5.72;;
4873;SDS011;2451;49.970;9.068;2023-06-24T09:30:17;10.77;;;8.05;;
4873;SDS011;2451;49.970;9.068;2023-06-24T09:32:45;9.40;;;6.93;;
4873;SDS011;2451;49.970;9.068;2023-06-24T09:35:11;6.97;;;4.70;;
4873;SDS011;2451;49.970;9.068;2023-06-24T09:37:37;6.72;;;4.88;;
4873;SDS011;2451;49.970;9.068;2023-06-24T09:40:03;9.25;;;5.18;;
4873;SDS011;2451;49.970;9.068;2023-06-24T09:42:30;7.68;;;5.35;;
4873;SDS011;2451;49.970;9.068;2023-06-24T09:44:56;7.13;;;4.85;;
4873;SDS011;2451;49.970;9.068;2023-06-24T09:47:22;6.55;;;4.95;;
4873;SDS011;2451;49.970;9.068;2023-06-24T09:49:52;5.88;;;4.22;;
4873;SDS011;2451;49.970;9.068;2023-06-24T09:52:18;7.07;;;3.80;;
4873;SDS011;2451;49.970;9.068;2023-06-24T09:54:46;6.40;;;3.67;;
4873;SDS011;2451;49.970;9.068;2023-06-24T09:57:15;7.28;;;3.90;;
4873;SDS011;2451;49.970;9.068;2023-06-24T09:59:47;6.20;;;4.20;;
4873;SDS011;2451;49.970;9.068;2023-06-24T10:02:14;5.22;;;3.40;;
4873;SDS011;2451;49.970;9.068;2023-06-24T10:04:40;6.70;;;3.72;;
4873;SDS011;2451;49.970;9.068;2023-06-24T10:07:07;8.05;;;3.50;;
4873;SDS011;2451;49.970;9.068;2023-06-24T10:09:32;4.55;;;3.35;;
4873;SDS011;2451;49.970;9.068;2023-06-24T10:11:58;6.20;;;3.58;;
4873;SDS011;2451;49.970;9.068;2023-06-24T10:14:23;5.20;;;3.47;;
4873;SDS011;2451;49.970;9.068;2023-06-24T10:16:49;5.80;;;3.75;;
4873;SDS011;2451;49.970;9.068;2023-06-24T10:19:18;5.85;;;3.92;;
4873;SDS011;2451;49.970;9.068;2023-06-24T10:24:12;5.60;;;3.50;;
4873;SDS011;2451;49.970;9.068;2023-06-24T10:26:39;8.50;;;4.18;;
4873;SDS011;2451;49.970;9.068;2023-06-24T10:34:20;4.97;;;3.90;;
4873;SDS011;2451;49.970;9.068;2023-06-24T10:47:35;10.07;;;3.78;;
4873;SDS011;2451;49.970;9.068;2023-06-24T10:50:02;6.07;;;3.53;;
4873;SDS011;2451;49.970;9.068;2023-06-24T10:52:28;5.45;;;3.65;;
4873;SDS011;2451;49.970;9.068;2023-06-24T10:54:55;5.97;;;3.65;;
4873;SDS011;2451;49.970;9.068;2023-06-24T10:57:24;5.70;;;3.40;;
4873;SDS011;2451;49.970;9.068;2023-06-24T10:59:51;3.72;;;3.10;;
4873;SDS011;2451;49.970;9.068;2023-06-24T11:02:19;3.88;;;2.78;;
4873;SDS011;2451;49.970;9.068;2023-06-24T11:04:46;5.00;;;3.45;;
4873;SDS011;2451;49.970;9.068;2023-06-24T11:07:12;5.78;;;3.28;;
4873;SDS011;2451;49.970;9.068;2023-06-24T11:09:41;5.43;;;3.42;;
4873;SDS011;2451;49.970;9.068;2023-06-24T11:12:08;4.97;;;3.10;;
4873;SDS011;2451;49.970;9.068;2023-06-24T11:14:35;4.50;;;3.22;;
4873;SDS011;2451;49.970;9.068;2023-06-24T11:17:01;4.68;;;3.40;;
4873;SDS011;2451;49.970;9.068;2023-06-24T11:19:28;7.20;;;3.33;;
4873;SDS011;2451;49.970;9.068;2023-06-24T11:21:58;4.15;;;2.95;;
4873;SDS011;2451;49.970;9.068;2023-06-24T11:24:27;5.43;;;2.90;;
4873;SDS011;2451;49.970;9.068;2023-06-24T11:26:53;5.30;;;3.08;;
4873;SDS011;2451;49.970;9.068;2023-06-24T11:29:19;3.90;;;2.80;;
4873;SDS011;2451;49.970;9.068;2023-06-24T11:31:44;4.75;;;3.05;;
4873;SDS011;2451;49.970;9.068;2023-06-24T11:34:10;7.30;;;3.70;;
4873;SDS011;2451;49.970;9.068;2023-06-24T11:36:36;7.07;;;3.65;;
4873;SDS011;2451;49.970;9.068;2023-06-24T11:39:01;5.10;;;3.30;;
4873;SDS011;2451;49.970;9.068;2023-06-24T11:41:28;6.10;;;3.28;;
4873;SDS011;2451;49.970;9.068;2023-06-24T11:43:53;7.25;;;3.42;;
4873;SDS011;2451;49.970;9.068;2023-06-24T11:48:51;4.45;;;2.80;;
4873;SDS011;2451;49.970;9.068;2023-06-24T11:51:17;5.13;;;3.30;;
4873;SDS011;2451;49.970;9.068;2023-06-24T11:53:43;4.40;;;3.25;;
4873;SDS011;2451;49.970;9.068;2023-06-24T11:56:09;6.90;;;3.88;;
4873;SDS011;2451;49.970;9.068;2023-06-24T11:58:35;6.15;;;3.75;;
4873;SDS011;2451;49.970;9.068;2023-06-24T12:01:00;4.90;;;3.55;;
4873;SDS011;2451;49.970;9.068;2023-06-24T12:03:27;5.50;;;3.15;;
4873;SDS011;2451;49.970;9.068;2023-06-24T12:05:54;6.72;;;3.00;;
4873;SDS011;2451;49.970;9.068;2023-06-24T12:08:19;4.15;;;3.10;;
4873;SDS011;2451;49.970;9.068;2023-06-24T12:10:47;4.20;;;3.08;;
4873;SDS011;2451;49.970;9.068;2023-06-24T12:13:13;3.63;;;2.85;;
4873;SDS011;2451;49.970;9.068;2023-06-24T12:15:39;3.70;;;3.30;;
4873;SDS011;2451;49.970;9.068;2023-06-24T12:18:05;5.18;;;3.47;;
4873;SDS011;2451;49.970;9.068;2023-06-24T12:20:31;4.70;;;3.10;;
4873;SDS011;2451;49.970;9.068;2023-06-24T12:22:57;4.43;;;3.30;;
4873;SDS011;2451;49.970;9.068;2023-06-24T12:25:23;5.30;;;3.30;;
4873;SDS011;2451;49.970;9.068;2023-06-24T12:27:49;4.65;;;3.40;;
4873;SDS011;2451;49.970;9.068;2023-06-24T12:30:15;11.65;;;3.50;;
4873;SDS011;2451;49.970;9.068;2023-06-24T12:32:45;3.95;;;3.15;;
4873;SDS011;2451;49.970;9.068;2023-06-24T12:35:10;5.60;;;3.35;;
4873;SDS011;2451;49.970;9.068;2023-06-24T12:37:36;6.28;;;3.40;;
4873;SDS011;2451;49.970;9.068;2023-06-24T12:40:04;5.28;;;3.65;;
4873;SDS011;2451;49.970;9.068;2023-06-24T12:42:31;4.28;;;3.15;;
4873;SDS011;2451;49.970;9.068;2023-06-24T12:44:56;4.30;;;3.40;;
4873;SDS011;2451;49.970;9.068;2023-06-24T12:47:22;5.03;;;3.05;;
4873;SDS011;2451;49.970;9.068;2023-06-24T12:49:48;6.15;;;3.58;;
4873;SDS011;2451;49.970;9.068;2023-06-24T12:52:14;5.40;;;3.05;;
4873;SDS011;2451;49.970;9.068;2023-06-24T12:54:40;4.55;;;3.10;;
4873;SDS011;2451;49.970;9.068;2023-06-24T12:57:06;5.20;;;3.13;;
4873;SDS011;2451;49.970;9.068;2023-06-24T12:59:31;4.93;;;3.28;;
4873;SDS011;2451;49.970;9.068;2023-06-24T13:01:57;4.53;;;3.30;;
4873;SDS011;2451;49.970;9.068;2023-06-24T13:04:22;4.28;;;3.15;;
4873;SDS011;2451;49.970;9.068;2023-06-24T13:06:49;4.70;;;3.35;;
4873;SDS011;2451;49.970;9.068;2023-06-24T13:09:16;4.72;;;3.20;;
4873;SDS011;2451;49.970;9.068;2023-06-24T13:11:41;4.05;;;3.28;;
4873;SDS011;2451;49.970;9.068;2023-06-24T13:14:07;4.30;;;3.80;;
4873;SDS011;2451;49.970;9.068;2023-06-24T13:16:34;5.90;;;3.55;;
4873;SDS011;2451;49.970;9.068;2023-06-24T13:19:01;4.47;;;3.45;;
4873;SDS011;2451;49.970;9.068;2023-06-24T13:21:26;4.30;;;3.42;;
4873;SDS011;2451;49.970;9.068;2023-06-24T13:23:52;5.45;;;3.30;;
4873;SDS011;2451;49.970;9.068;2023-06-24T13:26:17;4.45;;;3.53;;
4873;SDS011;2451;49.970;9.068;2023-06-24T13:28:43;5.90;;;3.80;;
4873;SDS011;2451;49.970;9.068;2023-06-24T13:31:08;6.05;;;3.65;;
4873;SDS011;2451;49.970;9.068;2023-06-24T13:33:34;4.93;;;3.38;;
4873;SDS011;2451;49.970;9.068;2023-06-24T13:36:00;4.82;;;3.50;;
4873;SDS011;2451;49.970;9.068;2023-06-24T13:38:27;5.13;;;3.78;;
4873;SDS011;2451;49.970;9.068;2023-06-24T13:40:53;4.50;;;3.50;;
4873;SDS011;2451;49.970;9.068;2023-06-24T13:43:18;5.85;;;3.50;;
4873;SDS011;2451;49.970;9.068;2023-06-24T13:45:44;5.22;;;3.70;;
4873;SDS011;2451;49.970;9.068;2023-06-24T13:48:10;5.85;;;3.80;;
4873;SDS011;2451;49.970;9.068;2023-06-24T13:50:35;5.15;;;3.63;;
4873;SDS011;2451;49.970;9.068;2023-06-24T13:53:01;7.20;;;4.00;;
4873;SDS011;2451;49.970;9.068;2023-06-24T13:55:26;5.45;;;3.83;;
4873;SDS011;2451;49.970;9.068;2023-06-24T13:57:52;5.90;;;3.80;;
4873;SDS011;2451;49.970;9.068;2023-06-24T14:00:18;4.88;;;3.35;;
4873;SDS011;2451;49.970;9.068;2023-06-24T14:02:44;4.35;;;3.38;;
4873;SDS011;2451;49.970;9.068;2023-06-24T14:05:10;5.40;;;3.50;;
4873;SDS011;2451;49.970;9.068;2023-06-24T14:07:36;7.32;;;3.75;;
4873;SDS011;2451;49.970;9.068;2023-06-24T14:10:01;6.00;;;3.63;;
4873;SDS011;2451;49.970;9.068;2023-06-24T14:12:27;5.57;;;3.50;;
4873;SDS011;2451;49.970;9.068;2023-06-24T14:14:52;5.95;;;3.50;;
4873;SDS011;2451;49.970;9.068;2023-06-24T14:17:18;5.28;;;3.50;;
4873;SDS011;2451;49.970;9.068;2023-06-24T14:19:43;8.10;;;4.07;;
4873;SDS011;2451;49.970;9.068;2023-06-24T14:22:09;4.40;;;3.45;;
4873;SDS011;2451;49.970;9.068;2023-06-24T14:24:35;5.28;;;3.55;;
4873;SDS011;2451;49.970;9.068;2023-06-24T14:27:02;4.60;;;3.20;;
4873;SDS011;2451;49.970;9.068;2023-06-24T14:29:30;5.65;;;3.80;;
4873;SDS011;2451;49.970;9.068;2023-06-24T14:31:55;5.40;;;3.70;;
4873;SDS011;2451;49.970;9.068;2023-06-24T14:34:21;5.28;;;3.55;;
4873;SDS011;2451;49.970;9.068;2023-06-24T14:36:46;5.65;;;3.70;;
4873;SDS011;2451;49.970;9.068;2023-06-24T14:39:13;4.82;;;3.53;;
4873;SDS011;2451;49.970;9.068;2023-06-24T14:41:40;4.50;;;3.58;;
4873;SDS011;2451;49.970;9.068;2023-06-24T14:44:05;4.45;;;3.50;;
4873;SDS011;2451;49.970;9.068;2023-06-24T14:46:31;5.60;;;3.65;;
4873;SDS011;2451;49.970;9.068;2023-06-24T14:48:56;6.13;;;3.60;;
4873;SDS011;2451;49.970;9.068;2023-06-24T14:51:23;4.40;;;3.30;;
4873;SDS011;2451;49.970;9.068;2023-06-24T14:53:49;5.72;;;3.40;;
4873;SDS011;2451;49.970;9.068;2023-06-24T14:56:14;4.93;;;3.50;;
4873;SDS011;2451;49.970;9.068;2023-06-24T14:58:40;4.85;;;3.40;;
4873;SDS011;2451;49.970;9.068;2023-06-24T15:01:05;5.78;;;3.30;;
4873;SDS011;2451;49.970;9.068;2023-06-24T15:03:31;4.88;;;3.53;;
4873;SDS011;2451;49.970;9.068;2023-06-24T15:05:56;4.43;;;3.20;;
4873;SDS011;2451;49.970;9.068;2023-06-24T15:08:22;4.90;;;3.78;;
4873;SDS011;2451;49.970;9.068;2023-06-24T15:10:50;5.10;;;3.63;;
4873;SDS011;2451;49.970;9.068;2023-06-24T15:13:16;5.57;;;3.40;;
4873;SDS011;2451;49.970;9.068;2023-06-24T15:15:41;5.22;;;3.35;;
4873;SDS011;2451;49.970;9.068;2023-06-24T15:18:07;6.72;;;3.45;;
4873;SDS011;2451;49.970;9.068;2023-06-24T15:20:33;5.40;;;3.35;;
4873;SDS011;2451;49.970;9.068;2023-06-24T15:22:58;5.82;;;3.30;;
4873;SDS011;2451;49.970;9.068;2023-06-24T15:25:24;4.30;;;3.10;;
4873;SDS011;2451;49.970;9.068;2023-06-24T15:27:49;4.80;;;3.40;;
4873;SDS011;2451;49.970;9.068;2023-06-24T15:30:15;5.00;;;3.28;;
4873;SDS011;2451;49.970;9.068;2023-06-24T15:32:41;7.47;;;3.65;;
4873;SDS011;2451;49.970;9.068;2023-06-24T15:35:07;6.47;;;3.05;;
4873;SDS011;2451;49.970;9.068;2023-06-24T15:37:33;5.43;;;3.10;;
4873;SDS011;2451;49.970;9.068;2023-06-24T15:39:58;4.95;;;3.00;;
4873;SDS011;2451;49.970;9.068;2023-06-24T15:42:24;5.47;;;3.35;;
4873;SDS011;2451;49.970;9.068;2023-06-24T15:44:50;4.72;;;3.38;;